EDFH/HHN METAR and TAF weather

Enter ICAO airport designator
Station Type Date Time Source
EDFH METAR 2019/04/25 21:50 UTC NOAA

EDFH 252150Z 25007KT 180V300 CAVOK 09/05 Q1010


Station Type Date Time Source
EDFH Decoded METAR 2019/04/25 21:50 UTC NOAA

Hahn, Germany (EDFH) 49-57N 007-16E 498M
Apr 25, 2019 - 05:50 PM EDT / 2019.04.25 2150 UTC
Wind: from the WSW (250 degrees) at 8 MPH (7 KT) (direction variable):0
Visibility: greater than 7 mile(s):0
Temperature: 48 F (9 C)
Dew Point: 41 F (5 C)
Relative Humidity: 75%
Pressure (altimeter): 29.83 in. Hg (1010 hPa)
ob: EDFH 252150Z 25007KT 180V300 CAVOK 09/05 Q1010
cycle: 22

Station Type Date Time Source
EDFH TAF 2019/04/25 18:50 UTC NOAA

TAF
AMD EDFH 251842Z 2518/2618 26013KT 9999 SCT035 PROB30
TEMPO 2521/2609 4000 RA BR BKN007 PROB30
TEMPO 2610/2617 SHRA BKN020CB

Example: see airport list